Time;durP1;ratioP1;P1;durP2;ratioP2;P2;SDS_P1;SDS_P2;PMS_P1;PMS_P2;Temp;Humidity;BMP_temperature;BMP_pressure;BME280_temperature;BME280_humidity;BME280_pressure;Samples;Min_cycle;Max_cycle;Signal;HPM_P1;HPM_P2
2023/12/25 00:02:26;;;;;;;15.50;9.80;;;;;;;3.18;100.00;99851.96;107397;1245;58369;-80
2023/12/25 00:04:55;;;;;;;17.00;10.00;;;;;;;3.26;100.00;99857.04;107381;1252;71693;-79
2023/12/25 00:07:30;;;;;;;15.80;10.30;;;;;;;3.30;100.00;99851.98;107418;1248;73683;-80
2023/12/25 00:10:01;;;;;;;14.50;10.10;;;;;;;3.17;100.00;99824.65;107351;1241;72805;-79
2023/12/25 00:12:30;;;;;;;15.20;9.40;;;;;;;3.42;100.00;99863.70;107416;1252;62968;-80
2023/12/25 00:15:08;;;;;;;19.70;10.30;;;;;;;3.43;100.00;99863.09;107417;1245;59682;-80
2023/12/25 00:17:37;;;;;;;17.90;10.50;;;;;;;3.46;100.00;99867.59;107210;1245;57920;-80
2023/12/25 00:20:14;;;;;;;16.70;9.70;;;;;;;3.52;100.00;99854.70;107236;1242;71714;-80
2023/12/25 00:22:43;;;;;;;14.80;10.10;;;;;;;3.54;100.00;99852.00;107138;1243;71047;-79
2023/12/25 00:25:16;;;;;;;14.30;9.40;;;;;;;3.56;100.00;99852.05;107586;1245;71070;-80
2023/12/25 00:27:46;;;;;;;12.40;8.80;;;;;;;3.57;100.00;99847.66;107356;1255;63676;-80
2023/12/25 00:30:15;;;;;;;12.50;7.20;;;;;;;3.59;100.00;99844.96;107234;1245;61023;-80
2023/12/25 00:32:44;;;;;;;13.60;8.50;;;;;;;3.61;100.00;99846.79;107117;1252;57378;-79
2023/12/25 00:35:17;;;;;;;;;;;;;;;3.66;100.00;99839.59;107119;1246;63267;-82
2023/12/25 00:37:49;;;;;;;11.50;6.70;;;;;;;3.67;100.00;99831.39;107321;1243;71500;-80
2023/12/25 00:40:18;;;;;;;11.80;7.30;;;;;;;3.72;100.00;99840.10;107282;1245;69166;-80
2023/12/25 00:42:47;;;;;;;12.30;8.00;;;;;;;3.77;100.00;99846.39;107362;1246;63412;-80
2023/12/25 00:45:21;;;;;;;11.50;7.60;;;;;;;3.83;100.00;99841.92;107460;1245;58007;-79
2023/12/25 00:47:50;;;;;;;10.80;7.60;;;;;;;3.89;100.00;99843.43;107390;1255;58331;-79
2023/12/25 00:50:21;;;;;;;11.20;7.50;;;;;;;3.91;100.00;99837.10;107017;1245;63884;-80
2023/12/25 00:52:50;;;;;;;12.00;7.00;;;;;;;3.94;100.00;99822.10;106951;1248;60693;-79
2023/12/25 00:55:20;;;;;;;9.30;6.20;;;;;;;4.05;100.00;99814.75;106927;1242;70123;-78
2023/12/25 00:57:51;;;;;;;10.80;6.40;;;;;;;4.15;100.00;99825.87;107176;1244;62399;-79
2023/12/25 01:00:21;;;;;;;8.80;6.20;;;;;;;4.25;100.00;99824.06;107354;1245;59878;-81
2023/12/25 01:03:02;;;;;;;9.80;6.20;;;;;;;4.27;100.00;99814.11;107368;1245;62184;-79
2023/12/25 01:05:37;;;;;;;10.00;6.10;;;;;;;4.33;100.00;99815.97;107358;1245;73268;-79
2023/12/25 01:08:09;;;;;;;9.30;5.50;;;;;;;4.42;100.00;99828.52;106893;1245;71965;-82
2023/12/25 01:10:38;;;;;;;9.70;6.60;;;;;;;4.45;100.00;99829.23;107114;1243;60343;-80
2023/12/25 01:13:08;;;;;;;10.20;6.50;;;;;;;4.44;100.00;99833.06;106869;1245;73763;-79
2023/12/25 01:15:39;;;;;;;7.90;5.00;;;;;;;4.43;100.00;99826.74;107049;1255;60558;-79
2023/12/25 01:18:09;;;;;;;8.10;5.30;;;;;;;4.52;100.00;99815.66;107142;1255;61759;-80
2023/12/25 01:20:40;;;;;;;8.50;5.30;;;;;;;4.58;100.00;99807.58;106920;1241;72848;-79
2023/12/25 01:23:09;;;;;;;8.20;5.70;;;;;;;4.55;100.00;99795.30;107078;1254;72953;-80
2023/12/25 01:25:38;;;;;;;7.60;5.10;;;;;;;4.53;100.00;99799.09;107027;1244;70480;-80
2023/12/25 01:28:07;;;;;;;7.90;5.20;;;;;;;4.49;100.00;99787.89;107232;1246;72893;-79
2023/12/25 01:30:35;;;;;;;9.20;5.20;;;;;;;4.45;100.00;99786.61;107005;1255;62253;-79
2023/12/25 01:33:04;;;;;;;12.00;9.00;;;;;;;4.40;100.00;99785.73;106931;1255;57431;-79
2023/12/25 01:35:33;;;;;;;14.10;10.40;;;;;;;4.36;100.00;99779.45;107093;1255;71911;-78
2023/12/25 01:38:03;;;;;;;10.00;7.30;;;;;;;4.33;100.00;99775.32;106938;1254;73458;-79
2023/12/25 01:40:32;;;;;;;10.50;6.50;;;;;;;4.31;100.00;99774.59;107206;1255;60162;-80
2023/12/25 01:43:01;;;;;;;9.40;6.50;;;;;;;4.25;100.00;99768.91;107021;1246;63248;-77
2023/12/25 01:45:30;;;;;;;8.70;5.10;;;;;;;4.20;100.00;99763.50;107123;1244;58909;-80
2023/12/25 01:47:59;;;;;;;8.50;5.70;;;;;;;4.21;100.00;99760.19;107269;1245;60145;-80
2023/12/25 01:50:30;;;;;;;7.90;5.00;;;;;;;4.24;100.00;99755.36;107310;1245;62450;-79
2023/12/25 01:52:59;;;;;;;6.60;4.00;;;;;;;4.31;100.00;99749.78;107013;1247;72162;-79
2023/12/25 01:55:28;;;;;;;8.00;4.30;;;;;;;4.39;100.00;99742.05;107004;1245;59544;-82
2023/12/25 01:57:57;;;;;;;6.30;3.80;;;;;;;4.49;100.00;99741.23;107775;1239;63486;-82
2023/12/25 02:00:26;;;;;;;5.00;3.00;;;;;;;4.53;100.00;99742.66;107783;1246;57661;-81
2023/12/25 02:02:55;;;;;;;7.00;4.30;;;;;;;4.64;100.00;99730.81;108026;1238;58264;-81
2023/12/25 02:05:24;;;;;;;6.60;4.00;;;;;;;4.73;100.00;99720.04;107807;1235;72718;-82
2023/12/25 02:07:54;;;;;;;6.90;4.30;;;;;;;4.76;100.00;99710.54;107863;1244;72547;-84
2023/12/25 02:10:28;;;;;;;6.60;4.20;;;;;;;4.82;100.00;99705.34;107912;1238;72072;-83
2023/12/25 02:13:02;;;;;;;6.00;4.00;;;;;;;4.85;100.00;99703.27;108010;1238;62270;-79
2023/12/25 02:15:31;;;;;;;6.60;4.10;;;;;;;4.88;100.00;99697.85;107873;1238;62058;-79
2023/12/25 02:18:02;;;;;;;6.50;4.20;;;;;;;4.93;100.00;99697.17;107740;1247;58965;-79
2023/12/25 02:20:33;;;;;;;5.40;3.50;;;;;;;4.94;100.00;99693.83;107874;1239;62033;-80
2023/12/25 02:23:08;;;;;;;6.40;4.20;;;;;;;4.95;100.00;99692.05;107873;1248;60838;-78
2023/12/25 02:25:54;;;;;;;7.30;4.80;;;;;;;5.01;100.00;99684.27;107992;1249;59848;-79
2023/12/25 02:28:24;;;;;;;9.80;8.40;;;;;;;5.10;100.00;99687.80;107790;1239;62745;-79
2023/12/25 02:30:52;;;;;;;9.30;6.80;;;;;;;5.15;100.00;99684.05;107800;1239;59423;-80
2023/12/25 02:33:22;;;;;;;6.50;4.90;;;;;;;5.12;100.00;99684.59;107884;1238;57659;-80
2023/12/25 02:35:51;;;;;;;4.10;2.50;;;;;;;5.09;100.00;99683.25;107773;1245;72839;-81
2023/12/25 02:38:20;;;;;;;6.20;3.60;;;;;;;5.21;100.00;99690.13;107820;1243;72673;-80
2023/12/25 02:40:50;;;;;;;6.20;3.50;;;;;;;5.28;100.00;99698.30;108533;1235;71289;-78
2023/12/25 02:43:19;;;;;;;5.30;3.40;;;;;;;5.30;100.00;99694.88;108448;1238;73166;-78
2023/12/25 02:45:48;;;;;;;5.60;3.40;;;;;;;5.32;100.00;99681.67;108169;1238;62112;-81
2023/12/25 02:48:16;;;;;;;5.70;3.10;;;;;;;5.34;100.00;99684.11;108196;1238;60488;-81
2023/12/25 02:50:45;;;;;;;5.00;3.20;;;;;;;5.38;100.00;99698.33;108037;1238;64258;-79
2023/12/25 02:53:14;;;;;;;4.40;2.90;;;;;;;5.42;100.00;99701.40;107939;1249;61712;-80
2023/12/25 02:55:43;;;;;;;5.40;3.60;;;;;;;5.39;100.00;99696.92;107800;1239;59778;-80
2023/12/25 02:58:12;;;;;;;6.30;3.60;;;;;;;5.39;100.00;99688.63;107719;1238;63053;-83
2023/12/25 03:00:41;;;;;;;5.00;3.30;;;;;;;5.40;100.00;99684.41;107849;1239;59018;-80
2023/12/25 03:03:10;;;;;;;5.60;3.60;;;;;;;5.46;100.00;99680.21;107445;1238;59096;-79
2023/12/25 03:05:40;;;;;;;5.30;3.00;;;;;;;5.50;100.00;99681.85;107439;1239;62269;-79
2023/12/25 03:08:10;;;;;;;5.50;3.00;;;;;;;5.56;100.00;99683.80;107551;1239;72350;-78
2023/12/25 03:10:39;;;;;;;4.50;2.90;;;;;;;5.61;100.00;99683.90;107660;1245;70447;-78
2023/12/25 03:13:07;;;;;;;5.40;3.30;;;;;;;5.61;100.00;99681.27;107579;1248;74005;-78
2023/12/25 03:15:37;;;;;;;4.70;3.00;;;;;;;5.60;100.00;99675.79;107649;1239;62122;-81
2023/12/25 03:18:06;;;;;;;5.00;3.30;;;;;;;5.57;100.00;99672.55;107732;1238;59581;-79
2023/12/25 03:20:35;;;;;;;7.50;3.80;;;;;;;5.53;100.00;99669.18;107866;1238;72179;-81
2023/12/25 03:23:04;;;;;;;5.20;3.30;;;;;;;5.51;100.00;99667.61;107997;1235;73230;-79
2023/12/25 03:25:34;;;;;;;5.70;2.90;;;;;;;5.50;100.00;99666.42;107852;1235;69263;-80
2023/12/25 03:28:03;;;;;;;4.90;3.00;;;;;;;5.57;100.00;99664.04;107618;1238;73422;-80
2023/12/25 03:30:32;;;;;;;5.40;3.30;;;;;;;5.57;100.00;99662.66;107654;1235;57875;-79
2023/12/25 03:33:01;;;;;;;5.00;3.10;;;;;;;5.55;100.00;99662.46;107700;1238;58922;-79
2023/12/25 03:35:30;;;;;;;4.70;3.20;;;;;;;5.56;100.00;99661.58;107475;1241;62518;-79
2023/12/25 03:37:59;;;;;;;4.00;2.70;;;;;;;5.57;100.00;99658.55;107714;1248;60985;-79
2023/12/25 03:40:28;;;;;;;5.50;3.10;;;;;;;5.63;100.00;99648.35;107588;1235;69668;-78
2023/12/25 03:43:02;;;;;;;5.30;3.40;;;;;;;5.62;100.00;99644.05;107670;1248;74108;-79
2023/12/25 03:45:31;;;;;;;5.30;3.20;;;;;;;5.58;100.00;99636.55;107548;1245;62005;-80
2023/12/25 03:48:00;;;;;;;6.10;3.40;;;;;;;5.61;100.00;99642.38;107548;1235;60768;-79
2023/12/25 03:50:31;;;;;;;4.50;2.80;;;;;;;5.61;100.00;99649.66;107729;1235;74687;-81
2023/12/25 03:53:00;;;;;;;4.10;2.70;;;;;;;5.83;100.00;99644.52;107955;1235;70979;-81
2023/12/25 03:55:29;;;;;;;5.00;2.90;;;;;;;5.89;100.00;99642.37;107792;1242;70183;-80
2023/12/25 03:57:58;;;;;;;5.00;3.20;;;;;;;5.93;100.00;99646.07;107808;1238;74198;-79
2023/12/25 04:00:27;;;;;;;3.50;2.50;;;;;;;5.99;100.00;99646.20;107819;1238;59369;-79
2023/12/25 04:02:59;;;;;;;5.90;2.60;;;;;;;6.04;100.00;99646.85;107647;1244;61551;-79
2023/12/25 04:05:30;;;;;;;3.40;2.30;;;;;;;6.10;100.00;99643.48;107594;1241;63421;-79
2023/12/25 04:07:59;;;;;;;3.80;2.20;;;;;;;6.16;100.00;99643.92;107632;1248;60727;-82
2023/12/25 04:10:28;;;;;;;5.30;2.70;;;;;;;6.19;100.00;99649.93;107730;1238;59516;-80
2023/12/25 04:12:57;;;;;;;4.00;2.40;;;;;;;6.26;100.00;99643.77;107557;1248;71560;-79
2023/12/25 04:15:26;;;;;;;2.70;1.90;;;;;;;6.35;100.00;99642.38;107515;1241;61678;-81
2023/12/25 04:17:56;;;;;;;3.50;2.10;;;;;;;6.53;100.00;99633.70;107508;1238;61182;-79
2023/12/25 04:20:25;;;;;;;4.50;2.80;;;;;;;6.48;100.00;99625.36;107629;1244;74982;-78
2023/12/25 04:22:55;;;;;;;3.50;2.10;;;;;;;6.66;100.00;99637.58;107535;1244;61600;-81
2023/12/25 04:25:24;;;;;;;4.10;2.10;;;;;;;6.77;100.00;99629.72;107305;1240;59344;-80
2023/12/25 04:27:54;;;;;;;3.40;2.30;;;;;;;6.79;100.00;99626.45;107495;1241;62805;-78
2023/12/25 04:30:23;;;;;;;4.60;3.00;;;;;;;6.81;100.00;99631.80;107445;1238;58676;-80
2023/12/25 04:32:53;;;;;;;3.60;2.30;;;;;;;6.82;100.00;99635.88;107733;1236;61116;-79
2023/12/25 04:35:22;;;;;;;3.70;2.10;;;;;;;6.92;100.00;99636.89;107692;1238;63548;-80
2023/12/25 04:37:51;;;;;;;3.10;2.20;;;;;;;6.99;100.00;99633.41;107664;1235;73612;-80
2023/12/25 04:40:20;;;;;;;4.20;2.10;;;;;;;6.96;100.00;99632.77;107778;1237;70331;-79
2023/12/25 04:42:49;;;;;;;3.70;2.20;;;;;;;6.98;100.00;99631.60;107414;1235;73975;-81
2023/12/25 04:45:18;;;;;;;4.10;2.40;;;;;;;6.98;100.00;99627.56;107483;1241;59953;-79
2023/12/25 04:47:46;;;;;;;3.50;2.30;;;;;;;7.04;100.00;99635.26;107744;1245;60463;-79
2023/12/25 04:50:16;;;;;;;2.60;1.60;;;;;;;7.10;100.00;99635.48;107792;1239;63560;-79
2023/12/25 04:52:45;;;;;;;2.50;1.40;;;;;;;7.27;100.00;99641.02;107968;1245;71957;-78
2023/12/25 04:55:13;;;;;;;1.90;1.30;;;;;;;7.31;100.00;99633.41;107544;1239;70436;-78
2023/12/25 04:57:42;;;;;;;3.30;1.90;;;;;;;7.37;100.00;99630.35;107637;1249;74811;-79
2023/12/25 05:00:12;;;;;;;2.80;1.90;;;;;;;7.32;100.00;99638.67;107610;1246;59075;-79
2023/12/25 05:02:41;;;;;;;3.00;1.80;;;;;;;7.29;100.00;99642.55;107902;1237;59999;-80
2023/12/25 05:05:10;;;;;;;4.30;2.10;;;;;;;7.31;100.00;99642.13;108097;1241;73946;-78
2023/12/25 05:07:39;;;;;;;2.80;1.40;;;;;;;7.32;100.00;99647.57;108456;1241;72427;-79
2023/12/25 05:10:08;;;;;;;3.80;2.00;;;;;;;7.30;100.00;99653.40;108253;1235;61862;-80
2023/12/25 05:12:37;;;;;;;4.40;3.10;;;;;;;7.28;100.00;99643.04;107738;1241;72890;-80
2023/12/25 05:15:07;;;;;;;4.10;2.40;;;;;;;7.21;100.00;99646.15;108018;1245;60524;-82
2023/12/25 05:17:36;;;;;;;3.40;2.10;;;;;;;7.20;100.00;99639.29;108030;1235;60636;-80
2023/12/25 05:20:06;;;;;;;3.10;2.20;;;;;;;7.18;100.00;99634.55;107905;1238;72966;-81
2023/12/25 05:22:36;;;;;;;3.70;2.90;;;;;;;7.17;100.00;99630.16;107907;1235;71993;-82
2023/12/25 05:25:05;;;;;;;4.50;2.40;;;;;;;7.14;100.00;99623.96;108005;1238;69251;-81
2023/12/25 05:27:34;;;;;;;4.00;2.10;;;;;;;7.10;100.00;99619.61;108158;1239;62779;-79
2023/12/25 05:30:03;;;;;;;3.20;2.10;;;;;;;7.12;100.00;99623.61;108719;1235;58808;-79
2023/12/25 05:32:34;;;;;;;4.00;2.60;;;;;;;7.09;100.00;99631.06;108006;1238;61128;-83
2023/12/25 05:35:06;;;;;;;3.50;2.20;;;;;;;7.07;100.00;99636.98;108152;1238;63658;-82
2023/12/25 05:37:35;;;;;;;3.50;2.40;;;;;;;7.07;100.00;99642.13;107874;1235;71439;-81
2023/12/25 05:40:07;;;;;;;3.60;2.40;;;;;;;7.02;100.00;99639.78;107868;1245;68813;-81
2023/12/25 05:42:36;;;;;;;4.20;2.70;;;;;;;6.98;100.00;99645.59;107872;1248;63011;-78
2023/12/25 05:45:06;;;;;;;3.70;2.80;;;;;;;6.95;100.00;99646.75;107881;1248;59026;-80
2023/12/25 05:47:35;;;;;;;4.20;2.30;;;;;;;6.93;100.00;99647.05;107933;1245;60866;-80
2023/12/25 05:50:08;;;;;;;4.30;2.70;;;;;;;6.93;100.00;99649.10;108053;1237;75266;-80
2023/12/25 05:52:37;;;;;;;3.80;2.70;;;;;;;6.95;100.00;99649.83;107832;1235;72750;-80
2023/12/25 05:55:06;;;;;;;3.40;2.40;;;;;;;6.98;100.00;99651.52;107870;1248;60314;-80
2023/12/25 05:57:35;;;;;;;4.80;2.60;;;;;;;6.99;100.00;99654.21;108072;1245;62337;-80
2023/12/25 06:00:05;;;;;;;3.50;2.20;;;;;;;7.02;100.00;99651.74;108077;1238;58914;-80
2023/12/25 06:02:39;;;;;;;4.00;2.20;;;;;;;7.05;100.00;99649.89;108107;1238;58968;-80
2023/12/25 06:05:08;;;;;;;3.10;1.70;;;;;;;7.11;100.00;99641.33;108116;1238;62181;-79
2023/12/25 06:07:38;;;;;;;4.20;2.40;;;;;;;7.17;100.00;99642.46;107950;1239;62111;-80
2023/12/25 06:10:07;;;;;;;4.00;2.20;;;;;;;7.17;100.00;99642.77;108020;1237;69457;-80
2023/12/25 06:12:40;;;;;;;3.50;2.30;;;;;;;7.18;100.00;99641.14;108067;1235;74182;-80
2023/12/25 06:15:11;;;;;;;4.20;2.70;;;;;;;7.18;100.00;99650.18;107734;1241;60594;-79
2023/12/25 06:17:40;;;;;;;5.00;3.10;;;;;;;7.20;100.00;99644.33;107986;1235;61365;-82
2023/12/25 06:20:10;;;;;;;5.40;3.00;;;;;;;7.18;100.00;99653.61;107975;1235;74330;-80
2023/12/25 06:22:47;;;;;;;7.50;3.00;;;;;;;7.18;100.00;99650.67;108125;1238;61278;-80
2023/12/25 06:25:16;;;;;;;6.20;3.10;;;;;;;7.19;100.00;99657.86;108009;1248;59231;-77
2023/12/25 06:27:45;;;;;;;7.40;3.70;;;;;;;7.18;100.00;99673.89;107898;1248;62299;-81
2023/12/25 06:30:28;;;;;;;10.90;5.70;;;;;;;7.17;100.00;99679.34;108134;1238;60885;-80
2023/12/25 06:32:57;;;;;;;11.80;5.50;;;;;;;7.13;100.00;99685.35;108302;1244;59042;-79
2023/12/25 06:35:27;;;;;;;8.20;4.00;;;;;;;7.15;100.00;99690.55;108025;1238;73786;-78
2023/12/25 06:37:56;;;;;;;10.40;4.70;;;;;;;7.14;100.00;99692.16;108019;1243;70621;-80
2023/12/25 06:40:25;;;;;;;12.30;5.80;;;;;;;7.15;100.00;99691.61;107893;1248;59542;-80
2023/12/25 06:42:54;;;;;;;8.70;4.90;;;;;;;7.15;100.00;99694.55;108012;1238;63097;-81
2023/12/25 06:45:26;;;;;;;11.10;6.10;;;;;;;7.16;100.00;99695.00;108021;1238;61996;-82
2023/12/25 06:47:54;;;;;;;12.40;6.10;;;;;;;7.17;100.00;99695.42;108294;1238;59085;-81
2023/12/25 06:50:24;;;;;;;10.60;6.10;;;;;;;7.18;100.00;99707.82;108094;1244;73264;-80
2023/12/25 06:52:53;;;;;;;11.40;5.80;;;;;;;7.19;100.00;99708.60;108152;1238;61313;-80
2023/12/25 06:55:22;;;;;;;13.10;7.10;;;;;;;7.21;100.00;99712.69;107970;1237;69537;-79
2023/12/25 06:57:51;;;;;;;13.90;8.40;;;;;;;7.23;100.00;99722.88;107980;1238;74670;-81
2023/12/25 07:00:20;;;;;;;12.40;7.70;;;;;;;7.23;100.00;99719.27;107954;1238;58927;-81
2023/12/25 07:02:50;;;;;;;12.50;7.90;;;;;;;7.22;100.00;99720.69;107947;1239;60938;-79
2023/12/25 07:05:20;;;;;;;11.00;7.10;;;;;;;7.23;100.00;99729.09;108039;1238;73819;-79
2023/12/25 07:07:49;;;;;;;21.10;10.70;;;;;;;7.25;100.00;99731.90;108077;1235;72573;-79
2023/12/25 07:10:18;;;;;;;18.70;10.20;;;;;;;7.25;100.00;99734.14;108001;1238;59975;-78
2023/12/25 07:12:47;;;;;;;20.70;10.60;;;;;;;7.26;100.00;99747.92;108065;1248;62488;-79
2023/12/25 07:15:17;;;;;;;27.30;14.50;;;;;;;7.29;100.00;99757.57;107994;1238;59339;-79
2023/12/25 07:17:46;;;;;;;26.60;12.50;;;;;;;7.26;100.00;99764.76;107744;1248;60714;-80
2023/12/25 07:20:16;;;;;;;18.50;9.60;;;;;;;7.30;100.00;99758.19;107832;1243;73826;-79
2023/12/25 07:22:45;;;;;;;17.60;9.60;;;;;;;7.36;100.00;99754.48;107834;1237;62675;-81
2023/12/25 07:25:14;;;;;;;17.10;9.50;;;;;;;7.43;100.00;99751.86;108756;1235;70461;-80
2023/12/25 07:27:43;;;;;;;26.40;12.50;;;;;;;7.52;100.00;99751.23;108679;1239;63168;-81
2023/12/25 07:30:12;;;;;;;27.00;12.70;;;;;;;7.61;100.00;99752.95;107907;1235;60932;-82
2023/12/25 07:32:41;;;;;;;23.20;11.90;;;;;;;7.68;100.00;99752.60;107923;1237;58465;-81
2023/12/25 07:35:10;;;;;;;21.60;11.10;;;;;;;7.78;100.00;99748.73;107891;1245;71883;-81
2023/12/25 07:37:39;;;;;;;25.90;12.00;;;;;;;7.85;100.00;99748.39;107696;1240;61387;-81
2023/12/25 07:40:10;;;;;;;28.30;12.30;;;;;;;7.93;100.00;99751.02;107598;1248;59019;-83
2023/12/25 07:42:39;;;;;;;17.70;9.60;;;;;;;8.00;100.00;99758.66;107850;1248;62574;-81
2023/12/25 07:45:12;;;;;;;18.60;10.30;;;;;;;8.08;100.00;99770.32;107837;1238;59393;-82
2023/12/25 07:47:41;;;;;;;20.70;10.20;;;;;;;8.21;100.00;99771.23;107724;1237;62725;-82
2023/12/25 07:50:10;;;;;;;18.90;9.80;;;;;;;8.34;100.00;99762.44;107832;1238;62612;-81
2023/12/25 07:52:39;;;;;;;24.40;10.10;;;;;;;8.42;100.00;99755.38;107867;1244;72203;-82
2023/12/25 07:55:08;;;;;;;16.50;8.70;;;;;;;8.52;100.00;99751.52;107802;1236;71206;-82
2023/12/25 07:57:37;;;;;;;18.40;9.80;;;;;;;8.58;100.00;99751.70;107860;1244;62781;-82
2023/12/25 08:00:08;;;;;;;24.10;11.00;;;;;;;8.65;100.00;99760.89;107717;1238;58797;-80
2023/12/25 08:02:40;;;;;;;14.80;7.70;;;;;;;8.73;100.00;99768.23;107674;1235;59211;-81
2023/12/25 08:05:09;;;;;;;24.30;10.70;;;;;;;8.87;100.00;99775.67;107915;1238;62571;-81
2023/12/25 08:07:38;;;;;;;18.30;9.50;;;;;;;9.03;100.00;99782.16;107930;1245;61539;-80
2023/12/25 08:10:08;;;;;;;16.10;8.30;;;;;;;9.21;100.00;99777.74;108049;1238;69463;-81
2023/12/25 08:12:43;;;;;;;12.90;7.00;;;;;;;9.38;100.00;99776.73;107767;1241;62492;-83
2023/12/25 08:15:15;;;;;;;10.50;6.40;;;;;;;9.52;100.00;99786.98;107970;1237;61097;-83
2023/12/25 08:17:43;;;;;;;8.10;4.50;;;;;;;9.66;100.00;99783.41;108081;1239;60947;-83
2023/12/25 08:20:12;;;;;;;9.30;4.40;;;;;;;9.79;100.00;99781.13;108123;1248;65512;-80
2023/12/25 08:22:41;;;;;;;12.10;6.90;;;;;;;9.96;100.00;99771.90;108151;1237;72341;-84
2023/12/25 08:25:11;;;;;;;13.70;7.90;;;;;;;10.03;100.00;99756.62;107848;1242;71017;-81
2023/12/25 08:27:40;;;;;;;17.20;9.50;;;;;;;10.00;100.00;99749.92;110077;1235;75390;-81
2023/12/25 08:30:11;;;;;;;15.80;9.80;;;;;;;10.07;100.00;99746.71;110201;1237;57688;-81
2023/12/25 08:32:40;;;;;;;13.20;9.00;;;;;;;10.13;100.00;99752.13;109982;1235;57534;-80
2023/12/25 08:35:10;;;;;;;14.60;8.40;;;;;;;10.21;100.00;99752.36;110256;1235;73831;-81
2023/12/25 08:37:39;;;;;;;11.50;6.90;;;;;;;10.23;100.00;99758.59;110215;1235;61633;-81
2023/12/25 08:40:08;;;;;;;9.30;6.00;;;;;;;10.31;100.00;99764.02;110243;1235;69660;-81
2023/12/25 08:42:38;;;;;;;11.80;6.70;;;;;;;10.41;100.00;99764.05;110240;1235;73718;-81
2023/12/25 08:45:07;;;;;;;8.90;5.30;;;;;;;10.51;100.00;99760.37;110207;1238;61612;-80
2023/12/25 08:47:36;;;;;;;9.00;5.70;;;;;;;10.63;100.00;99763.84;110227;1235;57203;-80
2023/12/25 08:50:07;;;;;;;10.60;5.90;;;;;;;10.80;100.00;99763.08;110255;1235;62283;-80
2023/12/25 08:52:36;;;;;;;10.00;5.60;;;;;;;11.01;100.00;99771.00;110113;1235;61523;-80
2023/12/25 08:55:05;;;;;;;11.00;6.10;;;;;;;11.27;100.00;99769.34;110248;1235;59942;-79
2023/12/25 08:57:36;;;;;;;14.40;5.90;;;;;;;11.53;100.00;99772.67;110278;1235;71252;-81
2023/12/25 09:00:10;;;;;;;9.40;5.90;;;;;;;11.77;100.00;99766.11;110262;1237;57690;-81
2023/12/25 09:02:39;;;;;;;8.80;4.40;;;;;;;11.99;100.00;99762.63;110229;1235;57654;-81
2023/12/25 09:05:08;;;;;;;8.70;4.70;;;;;;;12.14;100.00;99759.20;110254;1235;62472;-81
2023/12/25 09:07:37;;;;;;;12.70;6.00;;;;;;;12.29;100.00;99755.92;110223;1235;60778;-78
2023/12/25 09:10:06;;;;;;;9.60;4.90;;;;;;;12.41;100.00;99755.77;110230;1235;60338;-79
2023/12/25 09:12:36;;;;;;;11.30;6.20;;;;;;;12.51;100.00;99750.31;110197;1235;73096;-80
2023/12/25 09:15:05;;;;;;;18.40;7.00;;;;;;;12.60;100.00;99744.39;110194;1238;61626;-81
2023/12/25 09:17:34;;;;;;;25.00;7.20;;;;;;;12.73;100.00;99747.71;110076;1235;57729;-80
2023/12/25 09:20:04;;;;;;;24.50;8.10;;;;;;;12.80;100.00;99743.67;110202;1235;63082;-81
2023/12/25 09:22:33;;;;;;;31.30;8.10;;;;;;;12.89;100.00;99741.23;109931;1235;71462;-81
2023/12/25 09:25:02;;;;;;;13.70;6.40;;;;;;;12.98;100.00;99742.81;110077;1235;69944;-81
2023/12/25 09:27:34;;;;;;;36.80;8.30;;;;;;;13.10;100.00;99739.95;109935;1236;73833;-81
2023/12/25 09:30:12;;;;;;;22.50;6.00;;;;;;;13.17;100.00;99741.45;109924;1238;61058;-81
2023/12/25 09:32:42;;;;;;;14.00;5.30;;;;;;;13.12;100.00;99737.73;110090;1235;61529;-81
2023/12/25 09:35:15;;;;;;;16.10;5.80;;;;;;;13.18;100.00;99733.20;110190;1238;72783;-82
2023/12/25 09:37:46;;;;;;;24.30;7.50;;;;;;;13.29;100.00;99735.45;109972;1235;70768;-81
2023/12/25 09:40:15;;;;;;;17.40;5.90;;;;;;;13.42;100.00;99742.64;109964;1235;68630;-81
2023/12/25 09:42:45;;;;;;;17.10;5.60;;;;;;;13.40;100.00;99742.58;110229;1235;63203;-81
2023/12/25 09:45:16;;;;;;;17.70;6.30;;;;;;;13.56;100.00;99742.50;110212;1238;57345;-81
2023/12/25 09:47:48;;;;;;;27.50;6.30;;;;;;;13.63;100.00;99745.02;110009;1235;57750;-80
2023/12/25 09:50:31;;;;;;;20.20;6.00;;;;;;;13.71;100.00;99753.42;110283;1236;62807;-81
2023/12/25 09:53:00;;;;;;;23.00;5.60;;;;;;;13.84;100.00;99745.51;110084;1236;71326;-81
2023/12/25 09:55:33;;;;;;;28.00;5.70;;;;;;;13.99;100.00;99741.68;110227;1235;69937;-80
2023/12/25 09:58:10;;;;;;;18.60;4.70;;;;;;;14.16;100.00;99750.48;110237;1237;73864;-81
2023/12/25 10:00:40;;;;;;;33.10;5.90;;;;;;;14.28;100.00;99753.05;109976;1238;60058;-82
2023/12/25 10:03:09;;;;;;;9.40;3.60;;;;;;;14.39;100.00;99750.56;109952;1235;60788;-81
2023/12/25 10:05:38;;;;;;;11.80;2.00;;;;;;;14.51;100.00;99740.35;110087;1235;73554;-82
2023/12/25 10:08:07;;;;;;;1.50;0.90;;;;;;;14.61;100.00;99731.13;110107;1235;62113;-82
2023/12/25 10:10:36;;;;;;;3.10;1.20;;;;;;;14.62;100.00;99727.28;109953;1235;59118;-81
2023/12/25 10:13:05;;;;;;;7.90;1.50;;;;;;;14.68;100.00;99724.60;109956;1235;62530;-82
2023/12/25 10:15:34;;;;;;;6.60;1.30;;;;;;;14.70;100.00;99723.52;110038;1235;60292;-81
2023/12/25 10:18:07;;;;;;;4.10;1.30;;;;;;;14.73;100.00;99726.35;109939;1235;61728;-83
2023/12/25 10:20:37;;;;;;;6.90;1.20;;;;;;;14.75;100.00;99726.69;109860;1235;73257;-82
2023/12/25 10:23:13;;;;;;;4.00;1.30;;;;;;;14.73;100.00;99728.04;110051;1235;72485;-83
2023/12/25 10:25:50;;;;;;;5.30;1.40;;;;;;;14.68;100.00;99721.26;109947;1235;59426;-81
2023/12/25 10:28:21;;;;;;;7.50;1.60;;;;;;;14.71;100.00;99713.27;109879;1238;64096;-81
2023/12/25 10:31:08;;;;;;;5.00;1.50;;;;;;;14.67;100.00;99717.14;110271;1235;57460;-82
2023/12/25 10:33:37;;;;;;;7.40;1.40;;;;;;;14.75;100.00;99724.16;110145;1235;60204;-81
2023/12/25 10:36:10;;;;;;;4.60;1.50;;;;;;;14.81;100.00;99717.56;109871;1235;63682;-82
2023/12/25 10:38:42;;;;;;;5.00;1.80;;;;;;;14.79;100.00;99722.39;109858;1235;72821;-81
2023/12/25 10:41:22;;;;;;;5.10;1.90;;;;;;;14.79;100.00;99722.19;109807;1235;60287;-82
2023/12/25 10:43:59;;;;;;;5.90;1.80;;;;;;;14.78;100.00;99718.77;109886;1238;71558;-82
2023/12/25 10:46:34;;;;;;;4.60;1.70;;;;;;;14.81;100.00;99729.37;110071;1238;57187;-80
2023/12/25 10:49:08;;;;;;;6.70;2.20;;;;;;;14.79;100.00;99734.11;109697;1235;61071;-82
2023/12/25 10:51:41;;;;;;;6.20;2.50;;;;;;;14.84;100.00;99736.23;109992;1235;63492;-82
2023/12/25 10:54:11;;;;;;;4.50;2.20;;;;;;;14.86;100.00;99738.61;109969;1235;63453;-82
2023/12/25 10:56:40;;;;;;;6.90;1.90;;;;;;;14.93;100.00;99734.58;109782;1235;59090;-81
2023/12/25 10:59:24;;;;;;;16.10;3.10;;;;;;;15.01;100.00;99726.98;109934;1235;62369;-82
2023/12/25 11:01:59;;;;;;;6.80;2.20;;;;;;;15.01;100.00;99722.28;110050;1235;61128;-82
2023/12/25 11:04:30;;;;;;;6.70;2.40;;;;;;;15.06;100.00;99718.44;110076;1235;57609;-83
2023/12/25 11:07:00;;;;;;;4.20;2.10;;;;;;;15.07;100.00;99719.40;109911;1238;62964;-82
2023/12/25 11:09:30;;;;;;;6.80;2.50;;;;;;;15.13;100.00;99715.43;110168;1235;61492;-81
2023/12/25 11:11:59;;;;;;;6.90;2.30;;;;;;;15.20;100.00;99716.48;110270;1235;69675;-81
2023/12/25 11:14:28;;;;;;;5.50;1.60;;;;;;;15.21;100.00;99710.55;109986;1238;71917;-81
2023/12/25 11:16:58;;;;;;;5.50;2.00;;;;;;;15.14;100.00;99715.85;110051;1235;61151;-82
2023/12/25 11:19:27;;;;;;;4.00;1.90;;;;;;;15.17;100.00;99710.63;110063;1235;62522;-81
2023/12/25 11:21:56;;;;;;;4.20;1.70;;;;;;;15.09;100.00;99704.38;110062;1235;71473;-82
2023/12/25 11:24:28;;;;;;;4.80;1.70;;;;;;;15.15;100.00;99715.00;109933;1235;72666;-81
2023/12/25 11:27:04;;;;;;;5.10;1.80;;;;;;;15.01;100.00;99718.28;109791;1235;60226;-81
2023/12/25 11:29:33;;;;;;;3.70;2.30;;;;;;;14.98;100.00;99720.47;109918;1235;73872;-80
2023/12/25 11:32:11;;;;;;;3.60;2.00;;;;;;;14.88;100.00;99715.41;109899;1238;57691;-82
2023/12/25 11:34:43;;;;;;;5.80;2.20;;;;;;;14.83;100.00;99709.45;110036;1235;61090;-81